Time;durP1;ratioP1;P1;durP2;ratioP2;P2;SDS_P1;SDS_P2;PMS_P1;PMS_P2;Temp;Humidity;BMP_temperature;BMP_pressure;BME280_temperature;BME280_humidity;BME280_pressure;Samples;Min_cycle;Max_cycle;Signal;HPM_P1;HPM_P2
2022/01/29 00:00:46;;;;;;;8.20;6.32;;;6.90;91.50;;;;;;4920399;29;20206;-62
2022/01/29 00:03:17;;;;;;;7.70;5.75;;;6.90;92.00;;;;;;4927763;29;20262;-62
2022/01/29 00:05:48;;;;;;;7.28;5.60;;;6.80;92.10;;;;;;4911749;29;20203;-63
2022/01/29 00:08:19;;;;;;;7.50;6.18;;;6.70;92.00;;;;;;4924234;29;20206;-62
2022/01/29 00:10:55;;;;;;;8.55;6.03;;;6.60;92.40;;;;;;4929359;29;20283;-61
2022/01/29 00:13:25;;;;;;;7.82;5.45;;;6.60;92.70;;;;;;4926214;29;20196;-61
2022/01/29 00:15:56;;;;;;;7.15;5.82;;;6.40;93.20;;;;;;4920253;29;20249;-61
2022/01/29 00:18:27;;;;;;;11.07;5.80;;;6.40;94.10;;;;;;4914885;29;20207;-62
2022/01/29 00:20:58;;;;;;;7.32;6.05;;;6.30;93.70;;;;;;4917818;29;20195;-62
2022/01/29 00:23:29;;;;;;;7.07;5.35;;;6.30;93.60;;;;;;4910350;29;20207;-62
2022/01/29 00:26:01;;;;;;;7.35;5.70;;;6.20;93.90;;;;;;4912625;29;20599;-62
2022/01/29 00:28:34;;;;;;;8.27;5.88;;;6.10;93.90;;;;;;4923044;29;20559;-62
2022/01/29 00:31:05;;;;;;;7.57;6.07;;;6.00;94.70;;;;;;4923837;29;20217;-62
2022/01/29 00:33:35;;;;;;;7.25;5.65;;;5.90;94.50;;;;;;4915835;29;20209;-62
2022/01/29 00:36:07;;;;;;;8.75;5.95;;;5.90;94.90;;;;;;4917946;29;20207;-61
2022/01/29 00:38:38;;;;;;;8.32;6.20;;;5.90;95.70;;;;;;4917656;29;20296;-62
2022/01/29 00:41:10;;;;;;;7.15;6.18;;;5.90;96.20;;;;;;4919106;29;20278;-62
2022/01/29 00:43:41;;;;;;;8.45;5.85;;;5.80;96.20;;;;;;4919950;29;20207;-62
2022/01/29 00:46:12;;;;;;;9.63;7.57;;;5.70;95.80;;;;;;4913960;29;20213;-62
2022/01/29 00:48:42;;;;;;;11.85;5.88;;;5.60;95.90;;;;;;4909855;29;20211;-62
2022/01/29 00:51:13;;;;;;;7.38;6.47;;;5.60;96.20;;;;;;4908206;29;20235;-62
2022/01/29 00:53:44;;;;;;;8.07;6.00;;;5.50;96.20;;;;;;4909943;29;20281;-61
2022/01/29 00:56:16;;;;;;;8.45;6.07;;;5.40;96.60;;;;;;4909424;29;20298;-62
2022/01/29 00:58:47;;;;;;;7.13;5.80;;;5.30;97.10;;;;;;4909895;29;20221;-62
2022/01/29 01:01:18;;;;;;;8.00;5.65;;;5.40;97.30;;;;;;4909745;29;20204;-62
2022/01/29 01:03:49;;;;;;;10.57;5.65;;;5.30;97.00;;;;;;4909920;29;20199;-62
2022/01/29 01:06:20;;;;;;;8.07;5.35;;;5.20;97.50;;;;;;4908645;29;20211;-61
2022/01/29 01:08:51;;;;;;;10.50;7.35;;;5.20;98.00;;;;;;4909416;29;20215;-62
2022/01/29 01:11:24;;;;;;;7.15;6.10;;;5.10;98.40;;;;;;4909093;29;20211;-61
2022/01/29 01:13:58;;;;;;;6.82;5.75;;;5.10;98.00;;;;;;4909671;29;20216;-62
2022/01/29 01:16:29;;;;;;;7.95;6.20;;;5.10;98.30;;;;;;4908661;29;20230;-62
2022/01/29 01:18:59;;;;;;;8.18;5.97;;;5.00;98.50;;;;;;4910951;29;20203;-61
2022/01/29 01:21:31;;;;;;;9.65;6.65;;;5.00;98.70;;;;;;4916609;29;20532;-62
2022/01/29 01:24:02;;;;;;;8.68;6.53;;;4.90;99.10;;;;;;4925611;29;20663;-61
2022/01/29 01:26:35;;;;;;;7.85;6.25;;;4.80;99.20;;;;;;4920833;29;20596;-62
2022/01/29 01:29:06;;;;;;;8.63;6.43;;;4.80;99.50;;;;;;4922011;29;20666;-61
2022/01/29 01:31:40;;;;;;;9.45;6.65;;;4.80;99.80;;;;;;4918952;29;20203;-62
2022/01/29 01:34:10;;;;;;;9.30;6.22;;;4.70;99.90;;;;;;4909051;29;20282;-62
2022/01/29 01:36:47;;;;;;;10.38;6.25;;;4.70;99.90;;;;;;4921605;29;20205;-61
2022/01/29 01:39:22;;;;;;;8.93;5.60;;;4.70;99.90;;;;;;4915386;29;20217;-60
2022/01/29 01:41:58;;;;;;;7.50;5.53;;;4.60;99.90;;;;;;4922657;29;20206;-62
2022/01/29 01:44:35;;;;;;;8.25;6.30;;;4.50;99.90;;;;;;4912770;29;20211;-61
2022/01/29 01:47:07;;;;;;;8.30;6.72;;;4.50;99.90;;;;;;4926645;29;20214;-62
2022/01/29 01:49:38;;;;;;;8.50;6.78;;;4.50;99.90;;;;;;4918201;29;20301;-61
2022/01/29 01:52:11;;;;;;;8.45;6.00;;;4.40;99.90;;;;;;4911715;29;20265;-62
2022/01/29 01:54:44;;;;;;;9.02;7.05;;;4.40;99.90;;;;;;4919352;29;20205;-62
2022/01/29 01:57:18;;;;;;;9.60;6.60;;;4.40;99.90;;;;;;4926712;29;20222;-61
2022/01/29 01:59:49;;;;;;;7.80;6.25;;;4.40;99.90;;;;;;4927218;29;20353;-60
2022/01/29 02:02:21;;;;;;;9.77;6.50;;;4.30;99.90;;;;;;4926686;29;20609;-62
2022/01/29 02:04:52;;;;;;;9.40;6.78;;;4.30;99.90;;;;;;4911542;29;20214;-63
2022/01/29 02:07:25;;;;;;;8.88;7.18;;;4.30;99.90;;;;;;4915499;29;20206;-63
2022/01/29 02:09:56;;;;;;;8.48;5.65;;;4.20;99.90;;;;;;4921464;29;20234;-61
2022/01/29 02:12:33;;;;;;;10.40;7.13;;;4.20;99.90;;;;;;4912118;29;20215;-61
2022/01/29 02:15:05;;;;;;;8.52;6.93;;;4.20;99.90;;;;;;4918129;29;20225;-60
2022/01/29 02:17:37;;;;;;;11.18;7.75;;;4.20;99.90;;;;;;4914459;29;20659;-62
2022/01/29 02:20:09;;;;;;;7.38;6.57;;;4.20;99.90;;;;;;4923683;29;20277;-62
2022/01/29 02:22:43;;;;;;;10.90;8.20;;;4.20;99.90;;;;;;4916897;29;20198;-61
2022/01/29 02:25:33;;;;;;;8.05;6.03;;;4.20;99.90;;;;;;4913405;29;20275;-61
2022/01/29 02:28:06;;;;;;;10.88;7.35;;;4.20;99.90;;;;;;4917382;29;20294;-62
2022/01/29 02:30:39;;;;;;;13.30;7.20;;;4.10;99.90;;;;;;4916761;29;20313;-62
2022/01/29 02:33:13;;;;;;;10.35;7.90;;;4.10;99.90;;;;;;4923152;29;20562;-61
2022/01/29 02:35:45;;;;;;;10.93;7.10;;;4.10;99.90;;;;;;4922618;29;20245;-61
2022/01/29 02:38:22;;;;;;;12.38;6.70;;;4.10;99.90;;;;;;4909731;29;20210;-62
2022/01/29 02:40:57;;;;;;;8.68;6.93;;;4.10;99.90;;;;;;4914057;29;20196;-64
2022/01/29 02:43:32;;;;;;;10.98;6.70;;;4.10;99.90;;;;;;4921710;29;20200;-62
2022/01/29 02:46:18;;;;;;;12.23;7.45;;;4.00;99.90;;;;;;4919698;29;20282;-61
2022/01/29 02:48:52;;;;;;;11.38;7.47;;;4.00;99.90;;;;;;4918322;29;20251;-61
2022/01/29 02:51:26;;;;;;;11.15;7.22;;;4.00;99.90;;;;;;4914632;29;20241;-61
2022/01/29 02:53:59;;;;;;;8.10;6.22;;;4.00;99.90;;;;;;4915833;29;20252;-62
2022/01/29 02:56:30;;;;;;;9.60;7.50;;;4.00;99.90;;;;;;4924699;29;20230;-64
2022/01/29 02:59:01;;;;;;;10.25;6.90;;;4.00;99.90;;;;;;4911061;29;20954;-63
2022/01/29 03:01:31;;;;;;;9.70;7.20;;;4.00;99.90;;;;;;4908159;29;20278;-62
2022/01/29 03:04:03;;;;;;;9.43;7.40;;;4.10;99.90;;;;;;4913887;29;20213;-62
2022/01/29 03:06:36;;;;;;;8.52;5.95;;;4.10;99.90;;;;;;4916398;29;20203;-61
2022/01/29 03:09:10;;;;;;;9.57;6.25;;;4.00;99.90;;;;;;4907711;29;20238;-60
2022/01/29 03:11:41;;;;;;;10.57;6.80;;;4.00;99.90;;;;;;4918987;29;20233;-60
2022/01/29 03:14:15;;;;;;;8.95;6.90;;;4.00;99.90;;;;;;4922521;29;20214;-61
2022/01/29 03:16:46;;;;;;;9.73;7.10;;;4.00;99.90;;;;;;4919336;29;20254;-61
2022/01/29 03:19:17;;;;;;;8.85;6.53;;;3.90;99.90;;;;;;4921702;29;20213;-62
2022/01/29 03:21:48;;;;;;;8.90;6.97;;;3.90;99.90;;;;;;4915453;29;20203;-62
2022/01/29 03:24:20;;;;;;;11.45;7.93;;;3.90;99.90;;;;;;4915123;29;20272;-62
2022/01/29 03:26:51;;;;;;;11.20;7.30;;;3.90;99.90;;;;;;4924387;29;20551;-62
2022/01/29 03:29:23;;;;;;;8.98;7.68;;;3.90;99.90;;;;;;4913116;29;20256;-62
2022/01/29 03:31:57;;;;;;;6.97;5.95;;;3.80;99.90;;;;;;4920089;29;20219;-62
2022/01/29 03:34:28;;;;;;;10.40;7.28;;;3.80;99.90;;;;;;4927856;29;20265;-62
2022/01/29 03:36:59;;;;;;;11.23;6.85;;;3.80;99.90;;;;;;4925906;29;20730;-61
2022/01/29 03:39:34;;;;;;;8.05;6.45;;;3.80;99.90;;;;;;4918877;29;20218;-62
2022/01/29 03:42:08;;;;;;;10.02;6.80;;;3.70;99.90;;;;;;4919416;29;20302;-62
2022/01/29 03:44:39;;;;;;;11.25;6.53;;;3.70;99.90;;;;;;4913078;29;20258;-62
2022/01/29 03:47:10;;;;;;;9.43;6.75;;;3.70;99.90;;;;;;4910893;29;20196;-62
2022/01/29 03:49:41;;;;;;;12.60;6.97;;;3.70;99.90;;;;;;4914067;29;20214;-62
2022/01/29 03:52:11;;;;;;;8.32;5.95;;;3.70;99.90;;;;;;4921606;29;20251;-61
2022/01/29 03:54:44;;;;;;;9.40;7.35;;;3.80;99.90;;;;;;4912515;29;20877;-61
2022/01/29 03:57:15;;;;;;;7.57;6.35;;;3.80;99.90;;;;;;4915403;29;20243;-62
2022/01/29 03:59:49;;;;;;;9.82;5.93;;;3.80;99.90;;;;;;4918005;29;20203;-63
2022/01/29 04:02:20;;;;;;;10.35;7.28;;;3.80;99.90;;;;;;4917087;29;20227;-63
2022/01/29 04:04:51;;;;;;;8.73;6.70;;;3.70;99.90;;;;;;4926748;29;20895;-63
2022/01/29 04:07:22;;;;;;;9.95;6.88;;;3.70;99.90;;;;;;4924405;29;20206;-63
2022/01/29 04:09:56;;;;;;;8.68;6.50;;;3.70;99.90;;;;;;4928577;29;20251;-63
2022/01/29 04:12:29;;;;;;;7.72;6.30;;;3.70;99.90;;;;;;4910099;29;20238;-64
2022/01/29 04:15:00;;;;;;;9.45;6.80;;;3.70;99.90;;;;;;4919099;29;20341;-63
2022/01/29 04:17:31;;;;;;;7.95;6.28;;;3.70;99.90;;;;;;4909854;29;20210;-62
2022/01/29 04:20:03;;;;;;;8.50;6.22;;;3.70;99.90;;;;;;4916675;29;20295;-63
2022/01/29 04:22:36;;;;;;;9.10;6.32;;;3.80;99.90;;;;;;4922639;29;20207;-62
2022/01/29 04:25:11;;;;;;;8.73;6.28;;;3.80;99.90;;;;;;4920986;29;20214;-62
2022/01/29 04:27:45;;;;;;;10.05;7.78;;;3.80;99.90;;;;;;4912057;29;20232;-63
2022/01/29 04:30:27;;;;;;;11.38;6.45;;;3.80;99.90;;;;;;4925288;29;20221;-63
2022/01/29 04:33:14;;;;;;;11.57;7.03;;;3.70;99.90;;;;;;4911214;29;20207;-63
2022/01/29 04:35:44;;;;;;;9.02;6.75;;;3.70;99.90;;;;;;4920953;29;20209;-62
2022/01/29 04:38:15;;;;;;;9.93;6.40;;;3.70;99.90;;;;;;4917807;29;20277;-63
2022/01/29 04:40:48;;;;;;;8.57;6.80;;;3.60;99.90;;;;;;4916427;29;20211;-63
2022/01/29 04:43:19;;;;;;;8.80;6.30;;;3.60;99.90;;;;;;4917174;29;20222;-62
2022/01/29 04:45:51;;;;;;;9.88;7.00;;;3.70;99.90;;;;;;4917466;29;20213;-62
2022/01/29 04:48:22;;;;;;;9.18;6.65;;;3.70;99.90;;;;;;4925657;29;20226;-62
2022/01/29 04:50:53;;;;;;;9.15;7.00;;;3.70;99.90;;;;;;4923272;29;20266;-62
2022/01/29 04:53:24;;;;;;;8.07;6.43;;;3.60;99.90;;;;;;4921188;29;20199;-63
2022/01/29 04:55:56;;;;;;;14.30;7.55;;;3.60;99.90;;;;;;4926097;29;20663;-63
2022/01/29 04:58:27;;;;;;;10.52;7.30;;;3.60;99.90;;;;;;4923366;29;20207;-63
2022/01/29 05:00:58;;;;;;;10.90;7.32;;;3.50;99.90;;;;;;4921422;29;20324;-63
2022/01/29 05:03:30;;;;;;;9.73;7.10;;;3.50;99.90;;;;;;4921817;29;20745;-64
2022/01/29 05:06:01;;;;;;;9.32;6.85;;;3.40;99.90;;;;;;4911730;29;20230;-64
2022/01/29 05:08:36;;;;;;;9.80;6.90;;;3.40;99.90;;;;;;4915984;29;20211;-62
2022/01/29 05:11:09;;;;;;;10.55;6.93;;;3.50;99.90;;;;;;4909952;29;20267;-63
2022/01/29 05:13:41;;;;;;;8.30;6.78;;;3.40;99.90;;;;;;4919538;29;20623;-63
2022/01/29 05:16:35;;;;;;;14.73;8.43;;;3.30;99.90;;;;;;4925381;29;20278;-62
2022/01/29 05:27:31;;;;;;;11.63;7.32;;;3.50;99.90;;;;;;4916212;29;20187;-62
2022/01/29 05:30:02;;;;;;;11.75;7.43;;;3.50;99.90;;;;;;4920027;29;20214;-62
2022/01/29 05:32:33;;;;;;;8.48;6.57;;;3.50;99.90;;;;;;4918171;29;20230;-62
2022/01/29 05:35:04;;;;;;;10.98;6.82;;;3.50;99.90;;;;;;4920316;29;20221;-62
2022/01/29 05:37:42;;;;;;;8.98;6.53;;;3.40;99.90;;;;;;4907305;29;20254;-62
2022/01/29 05:40:13;;;;;;;10.50;6.85;;;3.40;99.90;;;;;;4914862;29;20206;-63
2022/01/29 05:42:46;;;;;;;12.57;6.68;;;3.40;99.90;;;;;;4927807;29;20504;-62
2022/01/29 05:45:17;;;;;;;12.50;8.63;;;3.50;99.90;;;;;;4918894;29;20588;-62
2022/01/29 05:47:47;;;;;;;10.77;7.63;;;3.50;99.90;;;;;;4925919;29;20233;-62
2022/01/29 05:50:18;;;;;;;8.80;6.28;;;3.40;99.90;;;;;;4924918;29;20248;-62
2022/01/29 05:52:49;;;;;;;9.52;7.07;;;3.40;99.90;;;;;;4910602;29;20226;-62
2022/01/29 05:55:20;;;;;;;11.73;8.32;;;3.30;99.90;;;;;;4918171;29;20205;-62
2022/01/29 05:57:52;;;;;;;9.20;6.93;;;3.30;99.90;;;;;;4921124;29;20209;-62
2022/01/29 06:00:23;;;;;;;11.35;7.68;;;3.30;99.90;;;;;;4911373;29;20213;-62
2022/01/29 06:03:01;;;;;;;8.55;6.75;;;3.20;99.90;;;;;;4926225;29;20218;-62
2022/01/29 06:05:33;;;;;;;11.48;6.85;;;3.20;99.90;;;;;;4926297;29;20583;-62
2022/01/29 06:08:04;;;;;;;11.25;7.75;;;3.20;99.90;;;;;;4925566;29;20209;-62
2022/01/29 06:10:35;;;;;;;10.05;7.50;;;3.10;99.90;;;;;;4927253;29;20238;-62
2022/01/29 06:13:09;;;;;;;9.38;6.97;;;3.10;99.90;;;;;;4925194;29;20218;-62
2022/01/29 06:15:42;;;;;;;10.63;6.53;;;3.10;99.90;;;;;;4927179;29;20217;-62
2022/01/29 06:18:16;;;;;;;13.38;8.13;;;3.10;99.90;;;;;;4922657;29;20238;-62
2022/01/29 06:20:48;;;;;;;11.93;7.05;;;3.10;99.90;;;;;;4923519;29;20198;-62
2022/01/29 06:23:23;;;;;;;13.90;7.75;;;3.10;99.90;;;;;;4926066;29;20210;-62
2022/01/29 06:25:54;;;;;;;11.70;7.72;;;3.10;99.90;;;;;;4917263;29;20195;-62
2022/01/29 06:28:26;;;;;;;11.57;7.95;;;3.10;99.90;;;;;;4922947;29;20221;-62
2022/01/29 06:30:59;;;;;;;8.75;6.78;;;3.10;99.90;;;;;;4926069;29;20198;-62
2022/01/29 06:33:32;;;;;;;9.80;7.57;;;3.10;99.90;;;;;;4922863;29;20229;-62
2022/01/29 06:36:04;;;;;;;11.65;7.70;;;3.10;99.90;;;;;;4917792;29;20229;-62
2022/01/29 06:38:35;;;;;;;9.65;7.07;;;3.00;99.90;;;;;;4924447;29;20212;-62
2022/01/29 06:41:06;;;;;;;8.02;7.15;;;3.10;99.90;;;;;;4925694;29;20207;-62
2022/01/29 06:43:38;;;;;;;10.75;7.82;;;3.00;99.90;;;;;;4921889;29;20234;-62
2022/01/29 06:46:10;;;;;;;9.65;7.38;;;3.00;99.90;;;;;;4924592;29;20230;-62
2022/01/29 06:48:41;;;;;;;9.70;7.07;;;2.90;99.90;;;;;;4914216;29;20265;-62
2022/01/29 06:51:12;;;;;;;10.88;7.18;;;2.90;99.90;;;;;;4918767;29;20245;-62
2022/01/29 06:53:42;;;;;;;9.57;7.30;;;2.90;99.90;;;;;;4907736;29;20241;-62
2022/01/29 06:56:13;;;;;;;9.30;6.70;;;2.90;99.90;;;;;;4907684;29;20343;-62
2022/01/29 06:58:45;;;;;;;10.02;7.60;;;2.90;99.90;;;;;;4912667;29;20187;-62
2022/01/29 07:01:36;;;;;;;10.20;6.88;;;2.90;99.90;;;;;;4912711;29;20218;-62
2022/01/29 07:04:07;;;;;;;8.82;6.78;;;2.80;99.90;;;;;;4915127;29;20203;-62
2022/01/29 07:06:39;;;;;;;13.30;8.65;;;2.80;99.90;;;;;;4918968;29;20202;-62
2022/01/29 07:09:10;;;;;;;8.95;6.88;;;2.70;99.90;;;;;;4920206;29;20270;-62
2022/01/29 07:11:43;;;;;;;11.40;7.50;;;2.80;99.90;;;;;;4925297;29;20218;-62
2022/01/29 07:14:17;;;;;;;9.02;7.45;;;2.70;99.90;;;;;;4915767;29;20238;-62
2022/01/29 07:16:48;;;;;;;9.00;6.72;;;2.60;99.90;;;;;;4924467;29;20468;-62
2022/01/29 07:19:19;;;;;;;12.35;7.85;;;2.50;99.90;;;;;;4915451;29;20207;-62
2022/01/29 07:21:50;;;;;;;10.13;7.72;;;2.60;99.90;;;;;;4912755;29;20203;-62
2022/01/29 07:24:21;;;;;;;11.55;7.38;;;2.60;99.90;;;;;;4909478;29;20671;-62
2022/01/29 07:26:52;;;;;;;11.25;6.90;;;2.60;99.90;;;;;;4907400;29;20221;-63
2022/01/29 07:29:24;;;;;;;9.68;7.18;;;2.60;99.90;;;;;;4921184;29;20196;-62
2022/01/29 07:31:55;;;;;;;12.05;7.95;;;2.60;99.90;;;;;;4920261;29;20207;-62
2022/01/29 07:34:27;;;;;;;10.57;7.70;;;2.60;99.90;;;;;;4911803;29;20326;-62
2022/01/29 07:36:59;;;;;;;11.52;7.03;;;2.50;99.90;;;;;;4919225;29;20215;-62
2022/01/29 07:39:30;;;;;;;11.57;8.25;;;2.60;99.90;;;;;;4916099;29;20263;-62
2022/01/29 07:42:00;;;;;;;11.27;7.90;;;2.70;99.90;;;;;;4910134;29;20207;-63
2022/01/29 07:44:33;;;;;;;9.70;7.38;;;2.70;99.90;;;;;;4925088;29;20197;-62
2022/01/29 07:47:04;;;;;;;10.88;7.05;;;2.60;99.90;;;;;;4918075;29;20207;-62
2022/01/29 07:49:35;;;;;;;11.75;8.35;;;2.60;99.90;;;;;;4912693;29;20202;-62
2022/01/29 07:52:09;;;;;;;12.45;8.38;;;2.60;99.90;;;;;;4919515;29;20242;-62
2022/01/29 07:54:40;;;;;;;12.30;7.45;;;2.70;99.90;;;;;;4924722;29;20269;-62
2022/01/29 07:57:11;;;;;;;10.75;7.50;;;2.70;99.90;;;;;;4917492;29;20202;-63
2022/01/29 07:59:43;;;;;;;13.93;7.75;;;2.60;99.90;;;;;;4916240;29;20553;-62
2022/01/29 08:02:14;;;;;;;10.32;7.43;;;2.60;99.90;;;;;;4920206;29;20210;-62
2022/01/29 08:04:45;;;;;;;8.93;7.05;;;2.60;99.90;;;;;;4917737;29;20266;-62
2022/01/29 08:07:16;;;;;;;9.48;6.95;;;2.60;99.90;;;;;;4922291;29;20568;-62
2022/01/29 08:09:48;;;;;;;13.25;9.32;;;2.60;99.90;;;;;;4926282;29;20221;-62
2022/01/29 08:12:19;;;;;;;12.25;8.45;;;2.60;99.90;;;;;;4923180;29;20226;-62
2022/01/29 08:14:53;;;;;;;11.48;7.70;;;2.60;99.90;;;;;;4913225;29;20195;-62
2022/01/29 08:17:24;;;;;;;10.20;8.15;;;2.60;99.90;;;;;;4919777;29;20210;-62
2022/01/29 08:19:55;;;;;;;12.07;7.70;;;2.60;99.90;;;;;;4920011;29;20270;-62
2022/01/29 08:22:26;;;;;;;14.00;8.20;;;2.60;99.90;;;;;;4924767;29;20203;-62
2022/01/29 08:24:57;;;;;;;10.00;7.68;;;2.50;99.90;;;;;;4915332;29;20343;-62
2022/01/29 08:27:28;;;;;;;11.93;7.90;;;2.60;99.90;;;;;;4928414;29;20191;-62
2022/01/29 08:30:01;;;;;;;11.73;8.25;;;2.60;99.90;;;;;;4913400;29;20192;-62
2022/01/29 08:32:31;;;;;;;12.05;8.15;;;2.50;99.90;;;;;;4927549;29;20211;-62
2022/01/29 08:35:02;;;;;;;10.48;7.07;;;2.50;99.90;;;;;;4917937;29;20210;-62
2022/01/29 08:37:33;;;;;;;11.25;7.97;;;2.50;99.90;;;;;;4925887;29;20306;-62
2022/01/29 08:40:05;;;;;;;14.63;8.20;;;2.50;99.90;;;;;;4912617;29;20307;-62
2022/01/29 08:42:36;;;;;;;11.05;7.00;;;2.50;99.90;;;;;;4915424;29;20209;-62
2022/01/29 08:45:12;;;;;;;10.65;7.72;;;2.50;99.90;;;;;;4928743;29;20214;-62
2022/01/29 08:47:44;;;;;;;13.13;8.20;;;2.50;99.90;;;;;;4913608;29;20221;-62
2022/01/29 08:50:15;;;;;;;14.25;8.63;;;2.60;99.90;;;;;;4912068;29;20239;-62
2022/01/29 08:52:46;;;;;;;11.82;7.50;;;2.50;99.90;;;;;;4918584;29;20202;-62
2022/01/29 08:55:18;;;;;;;10.50;7.88;;;2.50;99.90;;;;;;4918112;29;20208;-62
2022/01/29 08:57:49;;;;;;;9.77;7.25;;;2.50;99.90;;;;;;4914151;29;20204;-62
2022/01/29 09:00:22;;;;;;;11.05;8.30;;;2.50;99.90;;;;;;4921687;29;20203;-62
2022/01/29 09:02:52;;;;;;;10.60;7.45;;;2.50;99.90;;;;;;4916842;29;20314;-62
2022/01/29 09:05:24;;;;;;;10.70;7.82;;;2.50;99.90;;;;;;4922495;29;20237;-62
2022/01/29 09:07:56;;;;;;;12.00;7.20;;;2.50;99.90;;;;;;4917499;29;20217;-62
2022/01/29 09:10:31;;;;;;;13.25;8.60;;;2.40;99.90;;;;;;4922383;29;20243;-62
2022/01/29 09:13:02;;;;;;;12.45;9.00;;;2.40;99.90;;;;;;4917480;29;20559;-62
2022/01/29 09:15:46;;;;;;;13.32;9.57;;;2.40;99.90;;;;;;4916338;29;20231;-62
2022/01/29 09:18:20;;;;;;;12.07;8.90;;;2.50;99.90;;;;;;4925081;29;20285;-62
2022/01/29 09:20:51;;;;;;;10.13;6.97;;;2.40;99.90;;;;;;4926320;29;20617;-62
2022/01/29 09:23:22;;;;;;;14.18;7.80;;;2.30;99.90;;;;;;4923619;29;20250;-62
2022/01/29 09:25:55;;;;;;;11.43;7.05;;;2.20;99.90;;;;;;4920653;29;20213;-62
2022/01/29 09:28:26;;;;;;;13.18;8.90;;;2.20;99.90;;;;;;4927275;29;20227;-62
2022/01/29 09:30:59;;;;;;;11.95;8.13;;;2.20;99.90;;;;;;4927032;29;20278;-62
2022/01/29 09:33:30;;;;;;;13.02;8.13;;;2.20;99.90;;;;;;4923209;29;20226;-62
2022/01/29 09:36:02;;;;;;;10.38;7.93;;;2.30;99.90;;;;;;4909095;29;20221;-62
2022/01/29 09:38:32;;;;;;;13.48;8.65;;;2.20;99.90;;;;;;4920991;29;20294;-62
2022/01/29 09:41:05;;;;;;;12.40;8.30;;;2.20;99.90;;;;;;4926566;29;20211;-62
2022/01/29 09:43:36;;;;;;;11.80;7.55;;;2.10;99.90;;;;;;4921438;29;20202;-62
2022/01/29 09:46:10;;;;;;;13.30;8.75;;;2.00;99.90;;;;;;4921420;29;20623;-62
2022/01/29 09:48:45;;;;;;;15.90;8.95;;;2.00;99.90;;;;;;4926386;29;20445;-62
2022/01/29 09:51:18;;;;;;;14.02;7.80;;;1.90;99.90;;;;;;4925299;29;20762;-62
2022/01/29 09:53:48;;;;;;;12.77;7.55;;;1.80;99.90;;;;;;4915296;29;20317;-62
2022/01/29 09:56:20;;;;;;;11.77;7.45;;;1.80;99.90;;;;;;4920924;29;20211;-62
2022/01/29 09:58:51;;;;;;;13.85;8.68;;;1.70;99.90;;;;;;4926138;29;20263;-62
2022/01/29 10:01:26;;;;;;;13.43;8.27;;;1.70;99.90;;;;;;4927115;29;20198;-62
2022/01/29 10:04:02;;;;;;;13.00;8.13;;;1.80;99.90;;;;;;4925972;29;20750;-62
2022/01/29 10:06:33;;;;;;;11.75;7.63;;;1.80;99.90;;;;;;4923001;29;20210;-62
2022/01/29 10:09:11;;;;;;;12.18;9.20;;;1.70;99.90;;;;;;4922187;29;20202;-62
2022/01/29 10:11:42;;;;;;;11.70;7.72;;;1.60;99.90;;;;;;4926345;29;20285;-62
2022/01/29 10:14:48;;;;;;;11.55;7.68;;;1.70;99.90;;;;;;4926236;29;20263;-62
2022/01/29 10:17:46;;;;;;;11.57;7.53;;;1.70;99.90;;;;;;4913883;29;20204;-62
2022/01/29 10:20:43;;;;;;;10.88;7.50;;;1.60;99.90;;;;;;4919038;29;20206;-62
2022/01/29 10:23:46;;;;;;;10.63;7.63;;;1.50;99.90;;;;;;4917002;29;20266;-62
2022/01/29 10:26:33;;;;;;;14.00;9.40;;;1.40;99.90;;;;;;4906505;29;20212;-62
2022/01/29 10:29:07;;;;;;;12.45;9.02;;;1.30;99.90;;;;;;4914083;29;20222;-62
2022/01/29 10:31:42;;;;;;;15.10;8.27;;;1.20;99.90;;;;;;4924710;29;20265;-62
2022/01/29 10:34:26;;;;;;;12.98;8.43;;;1.20;99.90;;;;;;4925070;29;20238;-62
2022/01/29 10:37:19;;;;;;;13.07;8.85;;;1.20;99.90;;;;;;4925789;29;20203;-62
2022/01/29 10:39:52;;;;;;;13.13;7.85;;;1.20;99.90;;;;;;4918667;29;20237;-62
2022/01/29 10:42:27;;;;;;;17.10;8.13;;;1.20;99.90;;;;;;4914461;29;20206;-62
2022/01/29 10:45:02;;;;;;;11.73;7.47;;;1.20;99.90;;;;;;4919201;29;20229;-62
2022/01/29 10:47:53;;;;;;;12.18;8.52;;;1.10;99.90;;;;;;4915914;29;20294;-62
2022/01/29 10:50:26;;;;;;;12.65;8.40;;;1.00;99.90;;;;;;4908542;29;20207;-62
2022/01/29 10:52:57;;;;;;;13.00;8.40;;;1.00;99.90;;;;;;4913431;29;20194;-62
2022/01/29 10:55:28;;;;;;;12.13;8.02;;;1.00;99.90;;;;;;4911602;29;20249;-62
2022/01/29 10:57:59;;;;;;;13.07;8.23;;;0.90;99.90;;;;;;4912759;29;20666;-62
2022/01/29 11:00:31;;;;;;;11.90;7.50;;;0.90;99.90;;;;;;4921729;29;20221;-62
2022/01/29 11:03:02;;;;;;;13.98;9.15;;;0.90;99.90;;;;;;4908615;29;20207;-62
2022/01/29 11:05:36;;;;;;;12.13;8.10;;;0.80;99.90;;;;;;4908388;29;20195;-62
2022/01/29 11:08:11;;;;;;;12.00;7.95;;;0.80;99.90;;;;;;4910746;29;20196;-61
2022/01/29 11:10:42;;;;;;;13.15;8.65;;;0.80;99.90;;;;;;4920204;29;20220;-62
2022/01/29 11:13:33;;;;;;;11.65;8.60;;;0.70;99.90;;;;;;4923487;29;20231;-62
2022/01/29 11:16:05;;;;;;;16.38;9.75;;;0.60;99.90;;;;;;4917122;29;20235;-62
2022/01/29 11:18:36;;;;;;;10.30;8.23;;;0.60;99.90;;;;;;4926395;29;20210;-62
2022/01/29 11:21:09;;;;;;;14.55;9.85;;;0.60;99.90;;;;;;4924807;29;20220;-62
2022/01/29 11:23:43;;;;;;;12.80;8.48;;;0.60;99.90;;;;;;4919822;29;20295;-62
2022/01/29 11:26:16;;;;;;;12.23;8.90;;;0.50;99.90;;;;;;4912451;29;20213;-62
2022/01/29 11:28:47;;;;;;;14.65;9.38;;;0.40;99.90;;;;;;4916786;29;20266;-62
2022/01/29 11:31:28;;;;;;;12.57;8.70;;;0.40;99.90;;;;;;4918973;29;20206;-62
2022/01/29 11:34:27;;;;;;;14.10;9.45;;;0.40;99.90;;;;;;4914436;29;20203;-62
2022/01/29 11:37:11;;;;;;;14.60;9.15;;;0.30;99.90;;;;;;4875566;29;20222;-62
2022/01/29 11:39:42;;;;;;;10.00;7.65;;;0.30;99.90;;;;;;4877658;29;20562;-62
2022/01/29 11:42:32;;;;;;;11.52;9.18;;;0.30;99.90;;;;;;4870622;29;20211;-62
2022/01/29 11:45:38;;;;;;;14.23;9.43;;;0.30;99.90;;;;;;4884893;29;20299;-62
2022/01/29 11:48:10;;;;;;;14.65;8.98;;;0.20;99.90;;;;;;4881079;29;20200;-62
2022/01/29 11:50:47;;;;;;;13.50;8.75;;;0.20;99.90;;;;;;4871261;29;20240;-62
2022/01/29 11:53:20;;;;;;;12.43;8.30;;;0.10;99.90;;;;;;4870988;29;20331;-62
2022/01/29 11:55:52;;;;;;;13.98;9.13;;;0.20;99.90;;;;;;4870320;29;20327;-62
2022/01/29 11:58:26;;;;;;;13.50;8.70;;;0.50;99.90;;;;;;4870480;29;20291;-62
2022/01/29 12:00:57;;;;;;;12.63;8.75;;;0.60;99.90;;;;;;4868843;29;20234;-62
2022/01/29 12:03:58;;;;;;;14.55;9.35;;;0.70;99.90;;;;;;4864097;29;20370;-62
2022/01/29 12:06:32;;;;;;;13.77;9.18;;;0.80;99.90;;;;;;4875045;29;20218;-61
2022/01/29 12:09:24;;;;;;;11.43;8.57;;;0.70;99.90;;;;;;4873865;29;20203;-62
2022/01/29 12:12:18;;;;;;;12.27;8.43;;;0.70;99.90;;;;;;4877042;29;20250;-62
2022/01/29 12:14:50;;;;;;;14.45;8.00;;;0.70;99.90;;;;;;4927799;29;20376;-62
2022/01/29 12:17:44;;;;;;;11.68;8.30;;;0.70;99.90;;;;;;4927680;29;20313;-62
2022/01/29 12:20:16;;;;;;;14.50;8.95;;;0.70;99.90;;;;;;4929658;29;20277;-62
2022/01/29 12:22:48;;;;;;;10.93;7.97;;;0.70;99.90;;;;;;4918999;29;20205;-62
2022/01/29 12:25:23;;;;;;;13.25;8.50;;;0.70;99.90;;;;;;4914367;29;20203;-62
2022/01/29 12:27:55;;;;;;;11.57;7.90;;;0.70;99.90;;;;;;4924380;29;20230;-62
2022/01/29 12:30:28;;;;;;;12.38;8.88;;;0.90;99.90;;;;;;4912961;29;20215;-62
2022/01/29 12:33:01;;;;;;;12.85;8.45;;;1.00;99.90;;;;;;4911006;29;20207;-62
2022/01/29 12:35:41;;;;;;;10.65;8.95;;;1.10;99.90;;;;;;4910258;29;20246;-61
2022/01/29 12:38:13;;;;;;;14.32;8.70;;;1.10;99.90;;;;;;4914662;29;20194;-62
2022/01/29 12:40:55;;;;;;;14.95;9.10;;;1.10;99.90;;;;;;4911736;29;20219;-61
2022/01/29 12:43:29;;;;;;;16.13;9.40;;;1.10;99.90;;;;;;4916620;29;20203;-61
2022/01/29 12:46:15;;;;;;;16.40;10.27;;;1.10;99.90;;;;;;4915580;29;20364;-62
2022/01/29 12:49:00;;;;;;;13.63;9.30;;;1.10;99.90;;;;;;4917413;29;20253;-62
2022/01/29 12:51:31;;;;;;;12.40;8.20;;;1.00;99.90;;;;;;4917462;29;20325;-62
2022/01/29 12:54:07;;;;;;;13.05;8.30;;;1.00;99.90;;;;;;4925690;29;20274;-62
2022/01/29 12:56:40;;;;;;;13.73;9.10;;;0.90;99.90;;;;;;4916739;29;20229;-63
2022/01/29 12:59:15;;;;;;;12.90;8.60;;;0.90;99.90;;;;;;4925423;29;20209;-62
2022/01/29 13:01:47;;;;;;;15.82;9.25;;;1.10;99.90;;;;;;4927734;29;20205;-62
2022/01/29 13:04:20;;;;;;;12.60;9.05;;;1.20;99.90;;;;;;4928300;29;20214;-62
2022/01/29 13:07:01;;;;;;;12.13;8.55;;;1.20;99.90;;;;;;4924518;29;20206;-62
2022/01/29 13:09:34;;;;;;;14.60;8.13;;;1.20;99.90;;;;;;4927914;29;20293;-62
2022/01/29 13:12:12;;;;;;;12.60;8.70;;;1.20;99.90;;;;;;4926899;29;20210;-62
2022/01/29 13:14:43;;;;;;;12.65;9.02;;;1.20;99.90;;;;;;4928330;29;20202;-62
2022/01/29 13:17:16;;;;;;;11.80;8.70;;;1.10;99.90;;;;;;4925798;29;20294;-62
2022/01/29 13:19:51;;;;;;;11.05;8.80;;;1.00;99.90;;;;;;4917594;29;20224;-61
2022/01/29 13:22:22;;;;;;;13.32;8.25;;;0.90;99.90;;;;;;4924664;29;20275;-62
2022/01/29 13:24:58;;;;;;;14.65;8.75;;;0.80;99.90;;;;;;4924756;29;20317;-62
2022/01/29 13:27:33;;;;;;;14.48;9.20;;;0.70;99.90;;;;;;4918733;29;20207;-62
2022/01/29 13:30:18;;;;;;;12.05;8.68;;;0.70;99.90;;;;;;4910912;29;20199;-62
2022/01/29 13:32:51;;;;;;;14.52;9.50;;;0.70;99.90;;;;;;4913301;29;20611;-61